Volcano, Hawaii
Current Conditions -  °F | °C
As of 6:53 PM on Saturday 25 Oct 2014 (Local Time) from PHTO Reporting Station
Overcast Overcast  
Wind Chill: 74°   Ceiling: 2000
Heat Index: 74°   Visibility: 10mi
Dew Point: 71°   Wind: 6mph
Humidity: 91%   Direction: 250°WSW
Pressure: 30.01"   Gusts: NA
Location:  19.42°N, 155.22°W
Report Text: PHTO 260453Z 25005KT 10SM BKN020 OVC027 23/22 A3001 RMK AO2 RAE0356 SLP161 P0000 T02330217
Loading
Personal Weather Stations






























Interactive Weather Map
Tropical Storm Tracking
New forecast layout! Learn more

10-Day Weather Forecast

Advertisements
Track Severe Weather on mobile